Latest Weather Observations for Fowlers Gap

IDN60801

Issued at 5:35 pm EST Wednesday 23 April 2014 (issued every 30 minutes, with the page automatically refreshed every 10 minutes)

About weather observations | Map of weather stations | Latest weather observations for NSW | Other Formats
Station Details ID: 046128 Name: FOWLERS GAP AWS Lat: -31.09 Lon: 141.70 Height: 181.0 m
Data from the previous 72 hours. | See also: Recent months at Fowlers Gap
Date/Time
EST
Temp
°C
App
Temp
°C
Dew
Point
Rel
Hum
%
Delta-T
°C
Wind Press
QNH
hPa
Press
MSL
hPa
Rain
since 9 am
mm
Dir
 
Spd
km/h
Gust
km/h
Spd
kts
Gust
kts
23/05:30pm 27.7 23.9 4.1 22 12.0 W 13 15 7 8 1013.1 - 0.0
23/05:00pm 28.3 24.9 3.9 21 12.4 WNW 11 20 6 11 1013.1 1012.6 0.0
23/04:30pm 28.7 23.7 3.5 20 12.8 W 19 24 10 13 1013.1 - 0.0
23/04:00pm 28.2 25.0 5.1 23 12.0 NNW 11 19 6 10 1013.3 1012.8 0.0
23/03:30pm 28.3 24.2 4.6 22 12.2 WNW 15 28 8 15 1013.5 - 0.0
23/03:00pm 27.9 24.3 4.9 23 11.9 NNW 13 19 7 10 1013.7 1013.2 0.0
23/02:30pm 27.6 24.0 5.2 24 11.6 NNW 13 20 7 11 1014.0 - 0.0
23/02:00pm 27.6 24.0 5.2 24 11.6 NNW 13 24 7 13 1014.3 1013.8 0.0
23/01:30pm 27.5 24.7 5.1 24 11.6 NNW 9 15 5 8 1014.6 - 0.0
23/01:00pm 27.0 24.0 5.9 26 11.0 NNE 11 20 6 11 1015.1 1014.6 0.0
23/12:30pm 25.1 23.3 7.3 32 9.4 ENE 6 11 3 6 1015.7 - 0.0
23/12:00pm 23.6 21.8 8.1 37 8.3 SSE 7 11 4 6 1016.2 1015.7 0.0
23/11:30am 23.8 22.7 8.6 38 8.2 N 4 9 2 5 1016.8 - 0.0
23/11:00am 22.1 21.3 9.6 45 6.8 SE 4 9 2 5 1017.0 1016.5 0.0
23/10:30am 20.5 18.8 10.0 51 5.7 SE 9 13 5 7 1017.2 - 0.0
23/10:00am 19.8 17.6 10.8 56 4.9 ESE 13 17 7 9 1017.3 1016.8 0.0
23/09:30am 18.9 16.8 11.0 60 4.3 SE 13 15 7 8 1017.4 - 0.0
23/09:00am 17.6 15.3 10.5 63 3.8 SE 13 19 7 10 1017.5 1017.0 0.0
23/08:30am 16.7 15.1 10.3 66 3.4 SE 9 13 5 7 1017.1 - 0.0
23/08:00am 15.8 14.6 10.3 70 2.9 SE 7 15 4 8 1016.8 1016.3 0.0
23/07:30am 14.8 13.3 10.4 75 2.3 SE 9 15 5 8 1016.5 - 0.0
23/07:00am 14.4 13.3 10.6 78 2.0 ESE 7 11 4 6 1016.4 1015.9 0.0
23/06:30am 14.8 13.8 11.0 78 2.0 SSE 7 13 4 7 1016.3 - 0.0
23/06:00am 15.2 13.9 11.4 78 2.1 SSE 9 11 5 6 1016.2 1015.7 0.0
23/05:30am 15.3 14.4 11.3 77 2.2 SSE 7 11 4 6 1016.2 - 0.0
23/05:00am 15.7 14.5 11.7 77 2.2 ESE 9 11 5 6 1015.9 1015.4 0.0
23/04:30am 16.0 15.4 11.8 76 2.3 E 6 11 3 6 1015.8 - 0.0
23/04:00am 16.3 15.8 11.9 75 2.4 ESE 6 9 3 5 1015.8 1015.3 0.0
23/03:30am 16.6 15.7 11.5 72 2.8 SE 7 13 4 7 1015.9 - 0.0
23/03:00am 17.1 17.3 11.8 71 2.9 SSE 2 7 1 4 1016.0 1015.5 0.0
23/02:30am 17.3 16.1 11.6 69 3.1 SE 9 13 5 7 1016.0 - 0.0
23/02:00am 18.0 15.0 11.8 67 3.4 SSE 19 24 10 13 1016.1 1015.6 0.0
23/01:30am 18.3 15.0 11.6 65 3.7 SSE 20 26 11 14 1016.2 - 0.0
23/01:05am 19.3 13.3 10.8 58 4.7 S 33 39 18 21 1016.0 - 0.0
23/01:00am 19.7 16.3 6.1 41 6.8 SSW 13 19 7 10 1016.1 1015.6 0.0
23/12:30am 21.1 17.1 5.1 35 7.9 N 15 19 8 10 1015.8 - 0.0
23/12:00am 20.8 16.9 5.2 36 7.7 N 15 17 8 9 1015.9 1015.4 0.0
 
Date/Time
EST
Temp
°C
App
Temp
°C
Dew
Point
Rel
Hum
%
Delta-T
°C
Wind Press
QNH
hPa
Press
MSL
hPa
Rain
since 9 am
mm
Dir
 
Spd
km/h
Gust
km/h
Spd
kts
Gust
kts
22/11:30pm 20.7 17.3 5.9 38 7.4 N 13 17 7 9 1016.1 - 0.0
22/11:00pm 19.8 17.3 6.5 42 6.7 NNW 9 13 5 7 1016.5 1016.0 0.0
22/10:30pm 20.6 18.1 6.5 40 7.2 NNW 9 13 5 7 1016.5 - 0.0
22/10:00pm 19.5 17.4 6.6 43 6.5 NNW 7 9 4 5 1016.5 1016.0 0.0
22/09:30pm 20.3 19.1 6.6 41 7.0 NNW 2 6 1 3 1016.5 - 0.0
22/09:00pm 20.9 18.9 6.4 39 7.4 NNW 6 9 3 5 1016.2 1015.7 0.0
22/08:30pm 21.4 20.6 6.5 38 7.6 CALM 0 4 0 2 1016.2 - 0.0
22/08:00pm 22.0 20.5 6.7 37 7.9 N 4 11 2 6 1016.0 1015.5 0.0
22/07:30pm 22.2 20.6 6.4 36 8.1 NNW 4 11 2 6 1015.8 - 0.0
22/07:00pm 23.9 22.9 5.8 31 9.3 CALM 0 6 0 3 1015.5 1015.0 0.0
22/06:30pm 25.2 23.0 6.4 30 9.8 WNW 7 9 4 5 1015.2 - 0.0
22/06:00pm 27.0 24.4 5.9 26 11.0 W 9 11 5 6 1014.8 1014.3 0.0
22/05:30pm 28.4 25.1 4.6 22 12.3 WNW 11 15 6 8 1014.7 - 0.0
22/05:00pm 29.0 25.8 5.1 22 12.5 WNW 11 20 6 11 1014.6 1014.1 0.0
22/04:30pm 29.4 26.1 4.8 21 12.8 WNW 11 19 6 10 1014.6 - 0.0
22/04:00pm 29.0 25.0 5.1 22 12.5 SW 15 17 8 9 1014.8 1014.3 0.0
22/03:30pm 29.1 25.5 5.2 22 12.5 WSW 13 19 7 10 1014.8 - 0.0
22/03:00pm 29.2 24.9 5.3 22 12.5 W 17 24 9 13 1014.9 1014.4 0.0
22/02:30pm 29.1 24.8 5.2 22 12.5 W 17 24 9 13 1014.9 - 0.0
22/02:00pm 29.0 25.0 5.1 22 12.5 WNW 15 20 8 11 1015.2 1014.7 0.0
22/01:30pm 28.6 23.8 4.8 22 12.3 W 19 26 10 14 1015.5 - 0.0
22/01:00pm 28.3 23.4 5.2 23 12.0 NW 20 32 11 17 1016.1 1015.6 0.0
22/12:30pm 27.9 23.1 5.5 24 11.7 NW 20 32 11 17 1016.5 - 0.0
22/12:00pm 27.4 23.1 5.1 24 11.5 NNW 17 33 9 18 1017.0 1016.5 0.0
22/11:30am 27.0 22.2 4.7 24 11.4 NNW 19 26 10 14 1017.3 - 0.0
22/11:00am 26.6 22.4 5.5 26 10.9 NNW 17 24 9 13 1017.6 1017.1 0.0
22/10:30am 25.2 21.3 5.4 28 10.2 N 15 22 8 12 1017.9 - 0.0
22/10:00am 23.9 19.2 5.3 30 9.4 N 19 26 10 14 1017.9 1017.4 0.0
22/09:30am 23.0 18.6 5.0 31 9.0 N 17 24 9 13 1017.8 - 0.0
22/09:00am 21.9 18.9 5.8 35 8.1 NE 11 20 6 11 1018.0 1017.5 0.0
22/08:30am 18.7 16.1 6.2 44 6.2 ENE 9 13 5 7 1018.0 - 0.0
22/08:00am 18.8 16.2 6.0 43 6.4 NE 9 15 5 8 1017.7 1017.2 0.0
22/07:30am 17.3 14.7 5.9 47 5.6 NE 9 11 5 6 1017.4 - 0.0
22/07:00am 17.2 16.2 5.5 46 5.7 CALM 0 0 0 0 1017.1 1016.6 0.0
22/06:30am 17.5 16.2 6.1 47 5.6 S 2 6 1 3 1016.9 - 0.0
22/06:00am 18.7 16.0 5.5 42 6.5 N 9 11 5 6 1016.6 1016.1 0.0
22/05:30am 18.8 16.5 5.6 42 6.5 ENE 7 11 4 6 1016.6 - 0.0
22/05:00am 17.6 15.6 6.2 47 5.6 WSW 6 7 3 4 1016.4 1015.9 0.0
22/04:30am 19.3 17.1 5.4 40 6.9 N 6 11 3 6 1016.3 - 0.0
22/04:00am 19.6 16.1 5.3 39 7.1 N 13 20 7 11 1016.2 1015.7 0.0
22/03:30am 20.0 17.5 4.9 37 7.4 NNW 7 9 4 5 1016.4 - 0.0
22/03:00am 20.6 14.9 5.0 36 7.7 NNE 24 30 13 16 1016.1 1015.6 0.0
22/02:30am 20.6 14.6 5.4 37 7.6 NNE 26 32 14 17 1016.2 - 0.0
22/02:00am 20.8 15.5 5.2 36 7.7 NNE 22 33 12 18 1016.5 1016.0 0.0
22/01:30am 21.7 17.3 4.7 33 8.4 NNE 17 24 9 13 1016.7 - 0.0
22/01:00am 21.7 17.0 5.2 34 8.2 N 19 24 10 13 1016.8 1016.3 0.0
22/12:30am 21.4 17.1 5.3 35 8.0 N 17 22 9 12 1017.0 - 0.0
22/12:00am 21.7 18.6 5.6 35 8.1 N 11 17 6 9 1017.3 1016.8 0.0
 
Date/Time
EST
Temp
°C
App
Temp
°C
Dew
Point
Rel
Hum
%
Delta-T
°C
Wind Press
QNH
hPa
Press
MSL
hPa
Rain
since 9 am
mm
Dir
 
Spd
km/h
Gust
km/h
Spd
kts
Gust
kts
21/11:30pm 22.0 17.7 5.4 34 8.3 N 17 22 9 12 1017.5 - 0.0
21/11:00pm 22.2 18.0 5.6 34 8.4 N 17 20 9 11 1017.5 1017.0 0.0
21/10:30pm 21.9 18.6 6.6 37 7.9 N 13 17 7 9 1017.7 - 0.0
21/10:00pm 20.2 19.7 7.9 45 6.4 CALM 0 6 0 3 1017.8 1017.3 0.0
21/09:30pm 20.3 18.6 8.3 46 6.3 N 7 11 4 6 1017.7 - 0.0
21/09:00pm 19.9 19.7 8.9 49 5.8 CALM 0 0 0 0 1017.5 1017.0 0.0
21/08:30pm 20.5 20.1 8.2 45 6.5 CALM 0 0 0 0 1017.6 - 0.0
21/08:00pm 21.3 20.8 7.9 42 7.0 CALM 0 0 0 0 1017.6 1017.1 0.0
21/07:30pm 21.9 20.0 7.7 40 7.4 E 7 9 4 5 1017.4 - 0.0
21/07:00pm 22.8 20.8 7.0 36 8.2 NE 7 11 4 6 1017.1 1016.6 0.0
21/06:30pm 24.3 21.5 7.0 33 9.1 NNE 11 13 6 7 1017.0 - 0.0
21/06:00pm 25.3 22.1 7.0 31 9.7 NE 13 15 7 8 1016.7 1016.2 0.0
21/05:30pm 26.0 23.5 6.6 29 10.2 NNE 9 15 5 8 1016.5 - 0.0
21/05:00pm 26.5 24.9 6.5 28 10.5 E 4 7 2 4 1016.5 1016.0 0.0
21/04:30pm 27.0 25.4 6.4 27 10.9 W 4 7 2 4 1016.5 - 0.0
21/04:00pm 26.9 24.9 6.3 27 10.8 W 6 11 3 6 1016.6 1016.1 0.0
21/03:30pm 26.7 24.5 6.2 27 10.8 NNW 7 13 4 7 1016.7 - 0.0
21/03:00pm 26.9 24.3 6.3 27 10.8 WSW 9 13 5 7 1017.0 1016.5 0.0
21/02:30pm 27.3 25.4 6.7 27 11.0 NNW 6 11 3 6 1017.1 - 0.0
21/02:00pm 26.7 24.2 6.7 28 10.6 N 9 17 5 9 1017.4 1016.9 0.0
21/01:30pm 26.4 23.9 6.4 28 10.5 NNE 9 15 5 8 1017.7 - 0.0
21/01:00pm 26.5 24.1 7.0 29 10.4 WNW 9 17 5 9 1018.1 1017.6 0.0
21/12:30pm 25.8 23.0 6.9 30 10.0 NW 11 19 6 10 1018.6 - 0.0
21/12:00pm 25.0 22.1 6.7 31 9.6 N 11 19 6 10 1019.2 1018.7 0.0
21/11:30am 24.2 20.9 6.5 32 9.2 N 13 20 7 11 1019.6 - 0.0
21/11:00am 22.9 19.2 6.2 34 8.5 N 15 20 8 11 1019.9 1019.5 0.0
21/10:30am 21.8 18.5 6.5 37 7.8 N 13 17 7 9 1020.2 - 0.0
21/10:00am 20.7 17.2 7.0 41 7.0 NNE 15 19 8 10 1020.5 1020.1 0.0
21/09:30am 19.6 16.5 7.4 45 6.3 NE 13 19 7 10 1020.6 - 0.0
21/09:00am 18.0 15.5 8.0 52 5.1 NE 11 13 6 7 1020.7 1020.3 0.0
21/08:30am 15.8 14.1 8.5 62 3.7 E 7 11 4 6 1020.5 - 0.0
21/08:00am 14.0 13.7 8.6 70 2.7 CALM 0 6 0 3 1020.4 1020.0 0.0
21/07:30am 11.8 11.4 8.1 78 1.8 CALM 0 0 0 0 1020.2 - 0.0
21/07:00am 11.2 10.7 7.9 80 1.6 CALM 0 0 0 0 1019.8 1019.4 0.0
21/06:30am 11.5 10.3 8.0 79 1.7 WSW 4 9 2 5 1019.7 - 0.0
21/06:00am 11.6 11.2 8.1 79 1.7 CALM 0 6 0 3 1019.4 1018.9 0.0
21/05:30am 11.7 11.2 7.8 77 1.9 CALM 0 0 0 0 1019.2 - 0.0
21/05:00am 12.3 11.8 8.0 75 2.1 CALM 0 0 0 0 1019.1 1018.6 0.0
21/04:30am 12.9 12.4 8.0 72 2.4 CALM 0 0 0 0 1018.8 - 0.0
21/04:00am 13.0 12.6 8.1 72 2.4 CALM 0 0 0 0 1018.7 1018.2 0.0
21/03:30am 13.5 13.1 8.1 70 2.7 CALM 0 0 0 0 1018.6 - 0.0
21/03:00am 14.0 12.3 8.2 68 2.9 S 7 11 4 6 1018.6 1018.1 0.0
21/02:30am 14.8 13.1 8.3 65 3.3 SSE 7 9 4 5 1018.7 - 0.0
21/02:00am 14.3 13.9 8.3 67 3.0 CALM 0 0 0 0 1018.8 1018.3 0.0
21/01:30am 14.2 13.8 8.2 67 3.0 CALM 0 0 0 0 1018.8 - 0.0
21/01:00am 14.8 13.3 8.3 65 3.3 SW 6 7 3 4 1018.9 1018.4 0.0
21/12:30am 15.5 14.3 8.0 61 3.8 SSW 4 7 2 4 1019.0 - 0.0
21/12:00am 15.6 15.2 8.1 61 3.8 CALM 0 0 0 0 1018.9 1018.4 0.0
 
Date/Time
EST
Temp
°C
App
Temp
°C
Dew
Point
Rel
Hum
%
Delta-T
°C
Wind Press
QNH
hPa
Press
MSL
hPa
Rain
since 9 am
mm
Dir
 
Spd
km/h
Gust
km/h
Spd
kts
Gust
kts
20/11:30pm 16.0 14.3 8.2 60 4.0 SW 7 9 4 5 1018.9 - 0.0
20/11:00pm 16.0 15.6 8.2 60 4.0 CALM 0 0 0 0 1019.0 1018.5 0.0
20/10:30pm 16.7 16.3 8.4 58 4.3 CALM 0 6 0 3 1019.0 - 0.0
20/10:00pm 17.4 15.8 8.0 54 4.8 W 6 7 3 4 1019.0 1018.5 0.0
20/09:30pm 18.6 17.0 8.0 50 5.5 W 6 7 3 4 1018.9 - 0.0
20/09:00pm 18.8 17.2 7.9 49 5.6 WNW 6 7 3 4 1018.8 1018.3 0.0
20/08:30pm 19.8 18.9 7.9 46 6.2 WSW 2 7 1 4 1018.4 - 0.0
20/08:00pm 20.0 18.3 7.7 45 6.4 SW 6 9 3 5 1018.2 1017.7 0.0
20/07:30pm 20.4 18.3 8.1 45 6.4 SW 9 11 5 6 1017.9 - 0.0
20/07:00pm 21.2 19.4 7.8 42 7.0 SW 7 9 4 5 1017.6 1017.1 0.0
20/06:30pm 22.6 20.3 7.6 38 7.9 SW 9 9 5 5 1017.1 - 0.0
20/06:00pm 24.0 20.9 7.2 34 8.8 SW 13 15 7 8 1016.9 1016.4 0.0

Other Formats:

Comma delimited format used in spreadsheet applications
http://www.bom.gov.au/fwo/IDN60801/IDN60801.94686.axf

JavaScript Object Notation format (JSON) in row-major order
http://www.bom.gov.au/fwo/IDN60801/IDN60801.94686.json